Time,TemperatureF,DewpointF,PressureIn,WindDirection,WindDirectionDegrees,WindSpeedMPH,WindSpeedGustMPH,Humidity,HourlyPrecipIn,Conditions,Clouds,dailyrainin,SoftwareType,DateUTC
2013-10-01 00:01:00,46.9,43.5,29.94,NW,326,2.0,2.0,88,0.00,,,0.00,Wunderground v.1.15,2013-10-01 04:01:00,
2013-10-01 00:02:00,46.9,43.5,29.94,NNW,329,2.0,2.0,88,0.00,,,0.00,Wunderground v.1.15,2013-10-01 04:02:00,
2013-10-01 00:03:00,46.9,43.5,29.94,NW,324,2.0,2.0,88,0.00,,,0.00,Wunderground v.1.15,2013-10-01 04:03:00,
2013-10-01 00:07:00,46.9,43.5,29.94,NW,304,2.0,2.0,88,0.00,,,0.00,Wunderground v.1.15,2013-10-01 04:07:00,
2013-10-01 00:12:00,46.9,43.8,29.94,NW,316,2.0,2.0,89,0.00,,,0.00,Wunderground v.1.15,2013-10-01 04:12:00,
2013-10-01 00:17:00,46.9,43.8,29.94,NNW,342,2.0,2.0,89,0.00,,,0.00,Wunderground v.1.15,2013-10-01 04:17:00,
2013-10-01 00:19:00,46.9,43.8,29.94,NNW,330,2.0,2.0,89,0.00,,,0.00,Wunderground v.1.15,2013-10-01 04:19:00,
2013-10-01 00:26:00,47.0,43.9,29.94,NNW,347,2.0,2.0,89,0.00,,,0.00,Wunderground v.1.15,2013-10-01 04:26:00,
2013-10-01 00:31:00,47.0,43.9,29.93,NW,304,1.0,2.0,89,0.00,,,0.00,Wunderground v.1.15,2013-10-01 04:31:00,
2013-10-01 00:37:00,47.0,43.9,29.93,NW,314,2.0,2.0,89,0.00,,,0.00,Wunderground v.1.15,2013-10-01 04:37:00,
2013-10-01 00:42:00,46.9,43.8,29.93,NW,317,1.0,2.0,89,0.00,,,0.00,Wunderground v.1.15,2013-10-01 04:42:00,
2013-10-01 00:47:00,46.9,43.8,29.93,NW,319,1.0,2.0,89,0.00,,,0.00,Wunderground v.1.15,2013-10-01 04:47:00,
2013-10-01 00:53:00,47.3,44.2,29.93,NNW,341,1.0,2.0,89,0.00,,,0.00,Wunderground v.1.15,2013-10-01 04:53:00,
2013-10-01 00:59:00,47.3,44.2,29.93,WNW,287,1.0,2.0,89,0.00,,,0.00,Wunderground v.1.15,2013-10-01 04:59:00,
2013-10-01 01:06:00,47.3,44.2,29.93,NW,312,1.0,2.0,89,0.00,,,0.00,Wunderground v.1.15,2013-10-01 05:06:00,
2013-10-01 01:12:00,47.3,44.2,29.93,NW,307,1.0,2.0,89,0.00,,,0.00,Wunderground v.1.15,2013-10-01 05:12:00,
2013-10-01 01:18:00,47.3,44.2,29.93,WNW,300,1.0,3.0,89,0.00,,,0.00,Wunderground v.1.15,2013-10-01 05:18:00,
2013-10-01 01:24:00,47.4,44.3,29.93,NW,305,1.0,2.0,89,0.00,,,0.00,Wunderground v.1.15,2013-10-01 05:24:00,
2013-10-01 01:31:00,47.4,44.3,29.93,NW,305,0.0,0.0,89,0.00,,,0.00,Wunderground v.1.15,2013-10-01 05:31:00,
2013-10-01 01:36:00,47.5,44.4,29.93,NW,305,0.0,0.0,89,0.00,,,0.00,Wunderground v.1.15,2013-10-01 05:36:00,
2013-10-01 01:41:00,47.5,44.4,29.94,NW,304,0.0,0.0,89,0.00,,,0.00,Wunderground v.1.15,2013-10-01 05:41:00,
2013-10-01 01:47:00,47.5,44.4,29.93,NW,304,0.0,1.0,89,0.00,,,0.00,Wunderground v.1.15,2013-10-01 05:47:00,
2013-10-01 01:53:00,47.4,44.3,29.93,NW,304,0.0,0.0,89,0.00,,,0.00,Wunderground v.1.15,2013-10-01 05:53:00,
2013-10-01 01:58:00,47.3,44.2,29.93,NW,305,0.0,0.0,89,0.00,,,0.00,Wunderground v.1.15,2013-10-01 05:58:00,
2013-10-01 02:03:00,47.1,44.0,29.93,NW,304,0.0,0.0,89,0.00,,,0.00,Wunderground v.1.15,2013-10-01 06:03:00,
2013-10-01 02:09:00,46.9,43.8,29.93,NW,304,0.0,0.0,89,0.00,,,0.00,Wunderground v.1.15,2013-10-01 06:09:00,
2013-10-01 02:16:00,46.8,43.7,29.93,NW,304,0.0,0.0,89,0.00,,,0.00,Wunderground v.1.15,2013-10-01 06:16:00,
2013-10-01 02:22:00,46.5,43.4,29.93,NW,305,0.0,0.0,89,0.00,,,0.00,Wunderground v.1.15,2013-10-01 06:22:00,
2013-10-01 02:28:00,46.3,43.2,29.93,NW,305,0.0,0.0,89,0.00,,,0.00,Wunderground v.1.15,2013-10-01 06:28:00,
2013-10-01 02:34:00,46.1,43.0,29.93,NW,304,0.0,0.0,89,0.00,,,0.00,Wunderground v.1.15,2013-10-01 06:34:00,
2013-10-01 02:41:00,45.9,42.8,29.93,NW,305,0.0,0.0,89,0.00,,,0.00,Wunderground v.1.15,2013-10-01 06:41:00,
2013-10-01 02:46:00,45.8,42.7,29.92,NW,305,0.0,0.0,89,0.00,,,0.00,Wunderground v.1.15,2013-10-01 06:46:00,
2013-10-01 02:52:00,45.6,42.5,29.93,NW,305,0.0,1.0,89,0.00,,,0.00,Wunderground v.1.15,2013-10-01 06:52:00,
2013-10-01 02:57:00,45.5,42.4,29.92,NW,304,0.0,1.0,89,0.00,,,0.00,Wunderground v.1.15,2013-10-01 06:57:00,
2013-10-01 03:03:00,45.3,42.2,29.92,NW,304,0.0,1.0,89,0.00,,,0.00,Wunderground v.1.15,2013-10-01 07:03:00,
2013-10-01 03:09:00,45.1,42.1,29.92,NW,304,1.0,1.0,89,0.00,,,0.00,Wunderground v.1.15,2013-10-01 07:09:00,
2013-10-01 03:14:00,45.1,42.1,29.92,NW,310,1.0,2.0,89,0.00,,,0.00,Wunderground v.1.15,2013-10-01 07:14:00,
2013-10-01 03:21:00,45.1,42.1,29.92,NW,311,1.0,2.0,89,0.00,,,0.00,Wunderground v.1.15,2013-10-01 07:21:00,
2013-10-01 03:27:00,45.0,42.0,29.92,WNW,300,1.0,2.0,89,0.00,,,0.00,Wunderground v.1.15,2013-10-01 07:27:00,
2013-10-01 03:33:00,45.0,42.0,29.92,NW,309,2.0,3.0,89,0.00,,,0.00,Wunderground v.1.15,2013-10-01 07:33:00,
2013-10-01 03:39:00,45.1,42.1,29.92,NW,313,2.0,3.0,89,0.00,,,0.00,Wunderground v.1.15,2013-10-01 07:39:00,
2013-10-01 03:44:00,45.3,42.2,29.92,WNW,299,1.0,2.0,89,0.00,,,0.00,Wunderground v.1.15,2013-10-01 07:44:00,
2013-10-01 03:51:00,45.4,42.3,29.92,NW,304,1.0,3.0,89,0.00,,,0.00,Wunderground v.1.15,2013-10-01 07:51:00,
2013-10-01 03:56:00,45.4,42.3,29.92,NW,313,1.0,3.0,89,0.00,,,0.00,Wunderground v.1.15,2013-10-01 07:56:00,
2013-10-01 04:02:00,45.3,42.2,29.92,WNW,292,1.0,2.0,89,0.00,,,0.00,Wunderground v.1.15,2013-10-01 08:02:00,
2013-10-01 04:08:00,45.2,42.2,29.92,NW,305,2.0,2.0,89,0.00,,,0.00,Wunderground v.1.15,2013-10-01 08:08:00,
2013-10-01 04:14:00,45.2,42.2,29.92,NW,323,1.0,2.0,89,0.00,,,0.00,Wunderground v.1.15,2013-10-01 08:14:00,
2013-10-01 04:19:00,45.2,42.2,29.92,WNW,299,1.0,2.0,89,0.00,,,0.00,Wunderground v.1.15,2013-10-01 08:19:00,
2013-10-01 04:26:00,45.1,42.1,29.92,NW,313,2.0,2.0,89,0.00,,,0.00,Wunderground v.1.15,2013-10-01 08:26:00,
2013-10-01 04:31:00,45.1,42.1,29.92,WNW,300,2.0,3.0,89,0.00,,,0.00,Wunderground v.1.15,2013-10-01 08:31:00,
2013-10-01 04:36:00,45.2,42.2,29.92,NNW,342,2.0,3.0,89,0.00,,,0.00,Wunderground v.1.15,2013-10-01 08:36:00,
2013-10-01 04:42:00,45.3,42.2,29.92,NNW,338,1.0,1.0,89,0.00,,,0.00,Wunderground v.1.15,2013-10-01 08:42:00,
2013-10-01 04:49:00,45.5,42.4,29.92,NNW,335,1.0,2.0,89,0.00,,,0.00,Wunderground v.1.15,2013-10-01 08:49:00,
2013-10-01 04:56:00,45.4,42.3,29.92,NW,306,1.0,2.0,89,0.00,,,0.00,Wunderground v.1.15,2013-10-01 08:56:00,
2013-10-01 05:01:00,45.3,42.2,29.92,NW,313,1.0,1.0,89,0.00,,,0.00,Wunderground v.1.15,2013-10-01 09:01:00,
2013-10-01 05:06:00,45.3,42.2,29.92,WNW,298,1.0,2.0,89,0.00,,,0.00,Wunderground v.1.15,2013-10-01 09:06:00,
2013-10-01 05:12:00,45.5,42.4,29.92,NW,323,2.0,2.0,89,0.00,,,0.00,Wunderground v.1.15,2013-10-01 09:12:00,
2013-10-01 05:17:00,45.7,42.6,29.92,NNW,331,2.0,3.0,89,0.00,,,0.00,Wunderground v.1.15,2013-10-01 09:17:00,
2013-10-01 05:23:00,46.0,42.9,29.92,NW,304,1.0,2.0,89,0.00,,,0.00,Wunderground v.1.15,2013-10-01 09:23:00,
2013-10-01 05:28:00,46.0,42.9,29.92,NNW,332,1.0,2.0,89,0.00,,,0.00,Wunderground v.1.15,2013-10-01 09:28:00,
2013-10-01 05:34:00,46.0,42.9,29.91,NW,306,1.0,2.0,89,0.00,,,0.00,Wunderground v.1.15,2013-10-01 09:34:00,
2013-10-01 05:39:00,46.0,42.9,29.91,NW,323,2.0,3.0,89,0.00,,,0.00,Wunderground v.1.15,2013-10-01 09:39:00,
2013-10-01 05:46:00,46.0,42.9,29.91,NW,307,2.0,4.0,89,0.00,,,0.00,Wunderground v.1.15,2013-10-01 09:46:00,
2013-10-01 05:52:00,46.2,43.1,29.92,NW,311,2.0,2.0,89,0.00,,,0.00,Wunderground v.1.15,2013-10-01 09:52:00,
2013-10-01 05:57:00,46.3,43.2,29.92,NNW,344,2.0,2.0,89,0.00,,,0.00,Wunderground v.1.15,2013-10-01 09:57:00,
2013-10-01 06:02:00,46.5,43.4,29.92,NNW,345,2.0,2.0,89,0.00,,,0.00,Wunderground v.1.15,2013-10-01 10:02:00,
2013-10-01 06:08:00,46.7,43.6,29.92,NW,308,2.0,3.0,89,0.00,,,0.00,Wunderground v.1.15,2013-10-01 10:08:00,
2013-10-01 06:13:00,46.9,43.8,29.92,NW,312,2.0,3.0,89,0.00,,,0.00,Wunderground v.1.15,2013-10-01 10:13:00,
2013-10-01 06:19:00,47.0,43.9,29.92,WNW,298,2.0,3.0,89,0.00,,,0.00,Wunderground v.1.15,2013-10-01 10:19:00,
2013-10-01 06:26:00,47.2,44.1,29.92,NW,307,2.0,4.0,89,0.00,,,0.00,Wunderground v.1.15,2013-10-01 10:26:00,
2013-10-01 06:32:00,47.4,44.3,29.92,WNW,302,2.0,2.0,89,0.00,,,0.00,Wunderground v.1.15,2013-10-01 10:32:00,
2013-10-01 06:38:00,47.4,44.3,29.93,NW,317,2.0,2.0,89,0.00,,,0.00,Wunderground v.1.15,2013-10-01 10:38:00,
2013-10-01 06:43:00,47.3,44.2,29.93,NW,311,2.0,2.0,89,0.00,,,0.00,Wunderground v.1.15,2013-10-01 10:43:00,
2013-10-01 06:48:00,47.2,44.1,29.93,NW,323,2.0,4.0,89,0.00,,,0.00,Wunderground v.1.15,2013-10-01 10:48:00,
2013-10-01 06:54:00,47.2,44.1,29.93,NW,310,2.0,2.0,89,0.00,,,0.00,Wunderground v.1.15,2013-10-01 10:54:00,
2013-10-01 06:59:00,47.4,44.3,29.93,NW,325,2.0,2.0,89,0.00,,,0.00,Wunderground v.1.15,2013-10-01 10:59:00,
2013-10-01 07:06:00,47.5,44.4,29.93,NW,312,2.0,3.0,89,0.00,,,0.00,Wunderground v.1.15,2013-10-01 11:06:00,
2013-10-01 07:12:00,47.6,44.5,29.93,NW,316,2.0,2.0,89,0.00,,,0.00,Wunderground v.1.15,2013-10-01 11:12:00,
2013-10-01 07:17:00,47.7,44.6,29.93,WNW,296,2.0,3.0,89,0.00,,,0.00,Wunderground v.1.15,2013-10-01 11:17:00,
2013-10-01 07:23:00,47.9,44.8,29.93,NNW,342,2.0,3.0,89,0.00,,,0.00,Wunderground v.1.15,2013-10-01 11:23:00,
2013-10-01 07:29:00,48.0,44.9,29.93,NNW,331,2.0,3.0,89,0.00,,,0.00,Wunderground v.1.15,2013-10-01 11:29:00,
2013-10-01 07:34:00,48.1,45.0,29.93,NW,321,2.0,3.0,89,0.00,,,0.00,Wunderground v.1.15,2013-10-01 11:34:00,
2013-10-01 07:39:00,48.3,45.2,29.93,NNW,348,2.0,4.0,89,0.00,,,0.00,Wunderground v.1.15,2013-10-01 11:39:00,
2013-10-01 07:46:00,48.6,45.5,29.93,NW,311,2.0,3.0,89,0.00,,,0.00,Wunderground v.1.15,2013-10-01 11:46:00,
2013-10-01 07:51:00,49.1,46.0,29.93,NNW,333,2.0,2.0,89,0.00,,,0.00,Wunderground v.1.15,2013-10-01 11:51:00,
2013-10-01 07:57:00,50.3,47.2,29.93,North,350,2.0,2.0,89,0.00,,,0.00,Wunderground v.1.15,2013-10-01 11:57:00,
2013-10-01 08:02:00,51.1,48.0,29.93,North,355,1.0,2.0,89,0.00,,,0.00,Wunderground v.1.15,2013-10-01 12:02:00,
2013-10-01 08:08:00,52.1,49.0,29.93,North,360,1.0,2.0,89,0.00,,,0.00,Wunderground v.1.15,2013-10-01 12:08:00,
2013-10-01 08:13:00,52.7,49.8,29.93,North,5,1.0,1.0,90,0.00,,,0.00,Wunderground v.1.15,2013-10-01 12:13:00,
2013-10-01 08:18:00,53.4,50.2,29.93,NE,46,1.0,2.0,89,0.00,,,0.00,Wunderground v.1.15,2013-10-01 12:18:00,
2013-10-01 08:24:00,54.0,51.7,29.93,NW,323,1.0,1.0,92,0.00,,,0.00,Wunderground v.1.15,2013-10-01 12:24:00,
2013-10-01 08:31:00,54.9,51.4,29.93,North,349,1.0,1.0,88,0.00,,,0.00,Wunderground v.1.15,2013-10-01 12:31:00,
2013-10-01 08:36:00,55.5,52.0,29.94,NNE,32,1.0,2.0,88,0.00,,,0.00,Wunderground v.1.15,2013-10-01 12:36:00,
2013-10-01 08:42:00,56.3,52.5,29.94,NNE,29,1.0,1.0,87,0.00,,,0.00,Wunderground v.1.15,2013-10-01 12:42:00,
2013-10-01 08:48:00,57.0,52.9,29.94,NW,314,1.0,2.0,86,0.00,,,0.00,Wunderground v.1.15,2013-10-01 12:48:00,
2013-10-01 08:53:00,57.6,53.4,29.94,NNW,336,2.0,4.0,86,0.00,,,0.00,Wunderground v.1.15,2013-10-01 12:53:00,
2013-10-01 08:58:00,58.3,53.8,29.93,NW,322,2.0,4.0,85,0.00,,,0.00,Wunderground v.1.15,2013-10-01 12:58:00,
2013-10-01 09:04:00,59.0,54.2,29.94,WNW,289,2.0,4.0,84,0.00,,,0.00,Wunderground v.1.15,2013-10-01 13:04:00,
2013-10-01 09:11:00,60.0,54.8,29.94,NW,317,2.0,2.0,83,0.00,,,0.00,Wunderground v.1.15,2013-10-01 13:11:00,
2013-10-01 09:17:00,60.8,55.3,29.94,NNE,14,2.0,3.0,82,0.00,,,0.00,Wunderground v.1.15,2013-10-01 13:17:00,
2013-10-01 09:23:00,61.7,55.5,29.94,NNW,340,2.0,3.0,80,0.00,,,0.00,Wunderground v.1.15,2013-10-01 13:23:00,
2013-10-01 09:28:00,62.6,54.6,29.94,NNW,333,2.0,3.0,75,0.00,,,0.00,Wunderground v.1.15,2013-10-01 13:28:00,
2013-10-01 09:33:00,63.4,55.0,29.94,NW,322,2.0,6.0,74,0.00,,,0.00,Wunderground v.1.15,2013-10-01 13:33:00,
2013-10-01 09:39:00,64.0,55.2,29.94,NNW,333,2.0,6.0,73,0.00,,,0.00,Wunderground v.1.15,2013-10-01 13:39:00,
2013-10-01 09:46:00,64.6,55.0,29.94,NW,307,2.0,3.0,71,0.00,,,0.00,Wunderground v.1.15,2013-10-01 13:46:00,
2013-10-01 09:51:00,65.1,55.1,29.93,WNW,296,2.0,2.0,70,0.00,,,0.00,Wunderground v.1.15,2013-10-01 13:51:00,
2013-10-01 09:57:00,65.5,55.1,29.93,NW,304,2.0,6.0,69,0.00,,,0.00,Wunderground v.1.15,2013-10-01 13:57:00,
2013-10-01 10:03:00,66.0,54.3,29.93,NNW,332,2.0,2.0,66,0.00,,,0.00,Wunderground v.1.15,2013-10-01 14:03:00,
2013-10-01 10:09:00,66.4,54.7,29.93,NNW,340,2.0,2.0,66,0.00,,,0.00,Wunderground v.1.15,2013-10-01 14:09:00,
2013-10-01 10:16:00,66.8,54.7,29.93,NNW,344,2.0,2.0,65,0.00,,,0.00,Wunderground v.1.15,2013-10-01 14:16:00,
2013-10-01 10:22:00,67.3,54.7,29.93,NNE,33,2.0,3.0,64,0.00,,,0.00,Wunderground v.1.15,2013-10-01 14:22:00,
2013-10-01 10:27:00,67.4,54.8,29.93,ENE,74,2.0,3.0,64,0.00,,,0.00,Wunderground v.1.15,2013-10-01 14:27:00,
2013-10-01 10:32:00,67.7,55.5,29.93,NW,313,2.0,3.0,65,0.00,,,0.00,Wunderground v.1.15,2013-10-01 14:32:00,
2013-10-01 10:38:00,68.3,55.2,29.92,North,5,2.0,3.0,63,0.00,,,0.00,Wunderground v.1.15,2013-10-01 14:38:00,
2013-10-01 10:43:00,68.8,55.2,29.92,North,355,1.0,2.0,62,0.00,,,0.00,Wunderground v.1.15,2013-10-01 14:43:00,
2013-10-01 10:49:00,69.3,55.3,29.92,NE,41,2.0,4.0,61,0.00,,,0.00,Wunderground v.1.15,2013-10-01 14:49:00,
2013-10-01 10:56:00,69.5,55.0,29.92,NNW,330,3.0,3.0,60,0.00,,,0.00,Wunderground v.1.15,2013-10-01 14:56:00,
2013-10-01 11:01:00,69.9,55.8,29.92,North,360,3.0,3.0,61,0.00,,,0.00,Wunderground v.1.15,2013-10-01 15:01:00,
2013-10-01 11:06:00,70.5,55.9,29.92,NNW,334,2.0,3.0,60,0.00,,,0.00,Wunderground v.1.15,2013-10-01 15:06:00,
2013-10-01 11:12:00,70.7,55.2,29.92,NNW,344,2.0,2.0,58,0.00,,,0.00,Wunderground v.1.15,2013-10-01 15:12:00,
2013-10-01 11:17:00,70.9,54.9,29.92,WNW,302,2.0,7.0,57,0.00,,,0.00,Wunderground v.1.15,2013-10-01 15:17:00,
2013-10-01 11:22:00,71.3,54.3,29.91,NNW,345,3.0,4.0,55,0.00,,,0.00,Wunderground v.1.15,2013-10-01 15:22:00,
2013-10-01 11:27:00,71.4,53.9,29.91,East,90,3.0,4.0,54,0.00,,,0.00,Wunderground v.1.15,2013-10-01 15:27:00,
2013-10-01 11:33:00,71.7,53.7,29.91,NNW,327,3.0,5.0,53,0.00,,,0.00,Wunderground v.1.15,2013-10-01 15:33:00,
2013-10-01 11:39:00,72.3,55.2,29.91,NNE,30,3.0,5.0,55,0.00,,,0.00,Wunderground v.1.15,2013-10-01 15:39:00,
2013-10-01 11:46:00,72.4,54.3,29.90,NW,306,3.0,3.0,53,0.00,,,0.00,Wunderground v.1.15,2013-10-01 15:46:00,
2013-10-01 11:51:00,72.4,53.8,29.90,SSW,200,3.0,3.0,52,0.00,,,0.00,Wunderground v.1.15,2013-10-01 15:51:00,
2013-10-01 11:57:00,72.5,53.9,29.90,North,11,2.0,3.0,52,0.00,,,0.00,Wunderground v.1.15,2013-10-01 15:57:00,
2013-10-01 12:02:00,72.6,54.5,29.90,SW,234,2.0,2.0,53,0.00,,,0.00,Wunderground v.1.15,2013-10-01 16:02:00,
2013-10-01 12:07:00,73.2,55.6,29.90,ENE,71,2.0,4.0,54,0.00,,,0.00,Wunderground v.1.15,2013-10-01 16:07:00,
2013-10-01 12:12:00,73.4,54.2,29.89,NNE,28,2.0,3.0,51,0.00,,,0.00,Wunderground v.1.15,2013-10-01 16:12:00,
2013-10-01 12:18:00,73.4,55.7,29.89,NE,53,2.0,3.0,54,0.00,,,0.00,Wunderground v.1.15,2013-10-01 16:18:00,
2013-10-01 12:23:00,73.5,53.7,29.89,WNW,299,2.0,3.0,50,0.00,,,0.00,Wunderground v.1.15,2013-10-01 16:23:00,
2013-10-01 12:29:00,74.0,54.2,29.89,NNE,33,2.0,3.0,50,0.00,,,0.00,Wunderground v.1.15,2013-10-01 16:29:00,
2013-10-01 12:31:00,74.0,54.2,29.89,NE,34,2.0,2.0,50,0.00,,,0.00,Wunderground v.1.15,2013-10-01 16:31:00,
2013-10-01 12:36:00,73.9,53.5,29.89,NNW,331,2.0,4.0,49,0.00,,,0.00,Wunderground v.1.15,2013-10-01 16:36:00,
2013-10-01 12:42:00,73.8,54.5,29.88,ENE,69,2.0,2.0,51,0.00,,,0.00,Wunderground v.1.15,2013-10-01 16:42:00,
2013-10-01 12:47:00,74.5,54.6,29.88,WNW,290,2.0,2.0,50,0.00,,,0.00,Wunderground v.1.15,2013-10-01 16:47:00,
2013-10-01 12:52:00,75.3,54.8,29.88,NNW,334,2.0,3.0,49,0.00,,,0.00,Wunderground v.1.15,2013-10-01 16:52:00,
2013-10-01 12:59:00,75.8,53.5,29.88,ENE,72,2.0,3.0,46,0.00,,,0.00,Wunderground v.1.15,2013-10-01 16:59:00,
2013-10-01 13:04:00,75.7,55.2,29.88,North,360,2.0,4.0,49,0.00,,,0.00,Wunderground v.1.15,2013-10-01 17:04:00,
2013-10-01 13:11:00,75.8,54.1,29.87,NW,313,2.0,4.0,47,0.00,,,0.00,Wunderground v.1.15,2013-10-01 17:11:00,
2013-10-01 13:17:00,75.9,55.4,29.87,WSW,249,3.0,6.0,49,0.00,,,0.00,Wunderground v.1.15,2013-10-01 17:17:00,
2013-10-01 13:23:00,76.4,55.3,29.87,WNW,294,3.0,4.0,48,0.00,,,0.00,Wunderground v.1.15,2013-10-01 17:23:00,
2013-10-01 13:28:00,76.1,53.8,29.87,East,96,3.0,5.0,46,0.00,,,0.00,Wunderground v.1.15,2013-10-01 17:28:00,
2013-10-01 13:34:00,75.6,55.6,29.87,WNW,291,2.0,5.0,50,0.00,,,0.00,Wunderground v.1.15,2013-10-01 17:34:00,
2013-10-01 13:41:00,76.0,54.9,29.86,WNW,294,2.0,3.0,48,0.00,,,0.00,Wunderground v.1.15,2013-10-01 17:41:00,
2013-10-01 13:46:00,76.6,54.3,29.86,NNW,333,2.0,3.0,46,0.00,,,0.00,Wunderground v.1.15,2013-10-01 17:46:00,
2013-10-01 13:52:00,76.3,54.0,29.86,East,81,2.0,3.0,46,0.00,,,0.00,Wunderground v.1.15,2013-10-01 17:52:00,
2013-10-01 13:58:00,76.0,54.9,29.85,NW,306,2.0,5.0,48,0.00,,,0.00,Wunderground v.1.15,2013-10-01 17:58:00,
2013-10-01 14:03:00,76.3,54.6,29.85,ENE,63,2.0,3.0,47,0.00,,,0.00,Wunderground v.1.15,2013-10-01 18:03:00,
2013-10-01 14:09:00,76.2,53.9,29.85,NNW,345,2.0,5.0,46,0.00,,,0.00,Wunderground v.1.15,2013-10-01 18:09:00,
2013-10-01 14:16:00,76.0,54.9,29.85,WNW,298,2.0,3.0,48,0.00,,,0.00,Wunderground v.1.15,2013-10-01 18:16:00,
2013-10-01 14:21:00,76.4,55.3,29.85,NNE,27,1.0,2.0,48,0.00,,,0.00,Wunderground v.1.15,2013-10-01 18:21:00,
2013-10-01 14:27:00,76.9,55.7,29.85,NW,307,2.0,2.0,48,0.00,,,0.00,Wunderground v.1.15,2013-10-01 18:27:00,
2013-10-01 14:33:00,77.9,56.0,29.85,NNE,13,2.0,5.0,47,0.00,,,0.00,Wunderground v.1.15,2013-10-01 18:33:00,
2013-10-01 14:38:00,78.0,55.5,29.85,East,89,2.0,5.0,46,0.00,,,0.00,Wunderground v.1.15,2013-10-01 18:38:00,
2013-10-01 14:43:00,78.4,55.9,29.85,NNE,18,1.0,2.0,46,0.00,,,0.00,Wunderground v.1.15,2013-10-01 18:43:00,
2013-10-01 14:49:00,78.7,55.0,29.85,WNW,299,1.0,2.0,44,0.00,,,0.00,Wunderground v.1.15,2013-10-01 18:49:00,
2013-10-01 14:56:00,78.5,55.4,29.84,SSW,205,2.0,3.0,45,0.00,,,0.00,Wunderground v.1.15,2013-10-01 18:56:00,
2013-10-01 15:01:00,79.0,57.0,29.84,NNW,331,2.0,2.0,47,0.00,,,0.00,Wunderground v.1.15,2013-10-01 19:01:00,
2013-10-01 15:06:00,78.3,55.8,29.84,NE,41,2.0,2.0,46,0.00,,,0.00,Wunderground v.1.15,2013-10-01 19:06:00,
2013-10-01 15:12:00,77.7,55.9,29.84,North,10,2.0,2.0,47,0.00,,,0.00,Wunderground v.1.15,2013-10-01 19:12:00,
2013-10-01 15:18:00,77.7,56.4,29.84,WNW,288,2.0,2.0,48,0.00,,,0.00,Wunderground v.1.15,2013-10-01 19:18:00,
2013-10-01 15:24:00,77.9,55.5,29.84,North,360,2.0,2.0,46,0.00,,,0.00,Wunderground v.1.15,2013-10-01 19:24:00,
2013-10-01 15:31:00,77.0,55.2,29.84,NNW,339,3.0,3.0,47,0.00,,,0.00,Wunderground v.1.15,2013-10-01 19:31:00,
2013-10-01 15:36:00,76.5,55.3,29.83,North,9,3.0,5.0,48,0.00,,,0.00,Wunderground v.1.15,2013-10-01 19:36:00,
2013-10-01 15:42:00,76.4,55.8,29.83,NW,306,3.0,6.0,49,0.00,,,0.00,Wunderground v.1.15,2013-10-01 19:42:00,
2013-10-01 15:47:00,76.4,56.4,29.83,North,355,3.0,6.0,50,0.00,,,0.00,Wunderground v.1.15,2013-10-01 19:47:00,
2013-10-01 15:54:00,76.5,56.5,29.83,West,262,3.0,4.0,50,0.00,,,0.00,Wunderground v.1.15,2013-10-01 19:54:00,
2013-10-01 16:01:00,76.4,56.4,29.83,North,355,2.0,2.0,50,0.00,,,0.00,Wunderground v.1.15,2013-10-01 20:01:00,
2013-10-01 16:06:00,76.1,57.2,29.83,WNW,286,2.0,3.0,52,0.00,,,0.00,Wunderground v.1.15,2013-10-01 20:06:00,
2013-10-01 16:12:00,75.8,56.4,29.83,WNW,282,2.0,2.0,51,0.00,,,0.00,Wunderground v.1.15,2013-10-01 20:12:00,
2013-10-01 16:18:00,75.5,56.6,29.83,NW,309,3.0,5.0,52,0.00,,,0.00,Wunderground v.1.15,2013-10-01 20:18:00,
2013-10-01 16:23:00,75.2,56.4,29.83,NNW,342,3.0,4.0,52,0.00,,,0.00,Wunderground v.1.15,2013-10-01 20:23:00,
2013-10-01 16:28:00,75.1,56.8,29.83,North,5,3.0,5.0,53,0.00,,,0.00,Wunderground v.1.15,2013-10-01 20:28:00,
2013-10-01 16:33:00,75.0,56.7,29.83,NNE,24,3.0,3.0,53,0.00,,,0.00,Wunderground v.1.15,2013-10-01 20:33:00,
2013-10-01 16:39:00,75.0,57.7,29.83,WNW,294,2.0,3.0,55,0.00,,,0.00,Wunderground v.1.15,2013-10-01 20:39:00,
2013-10-01 16:44:00,74.9,56.6,29.83,NW,315,2.0,6.0,53,0.00,,,0.00,Wunderground v.1.15,2013-10-01 20:44:00,
2013-10-01 16:51:00,74.7,57.5,29.83,ENE,74,2.0,2.0,55,0.00,,,0.00,Wunderground v.1.15,2013-10-01 20:51:00,
2013-10-01 16:57:00,74.7,56.9,29.83,WNW,286,2.0,3.0,54,0.00,,,0.00,Wunderground v.1.15,2013-10-01 20:57:00,
2013-10-01 17:03:00,74.5,57.3,29.83,NNE,15,2.0,2.0,55,0.00,,,0.00,Wunderground v.1.15,2013-10-01 21:03:00,
2013-10-01 17:09:00,74.4,57.7,29.83,NNW,337,2.0,2.0,56,0.00,,,0.00,Wunderground v.1.15,2013-10-01 21:09:00,
2013-10-01 17:16:00,74.2,57.5,29.83,West,267,1.0,4.0,56,0.00,,,0.00,Wunderground v.1.15,2013-10-01 21:16:00,
2013-10-01 17:21:00,74.0,58.3,29.83,NNW,348,1.0,1.0,58,0.00,,,0.00,Wunderground v.1.15,2013-10-01 21:21:00,
2013-10-01 17:26:00,73.7,58.5,29.83,NNW,348,1.0,1.0,59,0.00,,,0.00,Wunderground v.1.15,2013-10-01 21:26:00,
2013-10-01 17:32:00,73.3,58.1,29.83,North,355,1.0,1.0,59,0.00,,,0.00,Wunderground v.1.15,2013-10-01 21:32:00,
2013-10-01 17:38:00,72.8,59.0,29.83,WNW,302,1.0,1.0,62,0.00,,,0.00,Wunderground v.1.15,2013-10-01 21:38:00,
2013-10-01 17:43:00,72.4,59.1,29.83,WNW,302,1.0,1.0,63,0.00,,,0.00,Wunderground v.1.15,2013-10-01 21:43:00,
2013-10-01 17:48:00,71.8,59.4,29.83,WNW,302,1.0,1.0,65,0.00,,,0.00,Wunderground v.1.15,2013-10-01 21:48:00,
2013-10-01 17:54:00,71.2,59.3,29.84,WNW,302,0.0,1.0,66,0.00,,,0.00,Wunderground v.1.15,2013-10-01 21:54:00,
2013-10-01 18:01:00,70.4,59.3,29.84,WNW,302,0.0,0.0,68,0.00,,,0.00,Wunderground v.1.15,2013-10-01 22:01:00,
2013-10-01 18:06:00,69.9,59.3,29.84,WNW,302,0.0,0.0,69,0.00,,,0.00,Wunderground v.1.15,2013-10-01 22:06:00,
2013-10-01 18:12:00,69.2,59.0,29.84,WNW,302,0.0,0.0,70,0.00,,,0.00,Wunderground v.1.15,2013-10-01 22:12:00,
2013-10-01 18:18:00,68.5,59.1,29.84,WNW,302,0.0,0.0,72,0.00,,,0.00,Wunderground v.1.15,2013-10-01 22:18:00,
2013-10-01 18:23:00,68.0,59.4,29.85,WNW,302,0.0,0.0,74,0.00,,,0.00,Wunderground v.1.15,2013-10-01 22:23:00,
2013-10-01 18:28:00,67.4,59.2,29.85,WNW,302,0.0,1.0,75,0.00,,,0.00,Wunderground v.1.15,2013-10-01 22:28:00,
2013-10-01 18:33:00,66.9,58.7,29.85,WNW,302,0.0,0.0,75,0.00,,,0.00,Wunderground v.1.15,2013-10-01 22:33:00,
2013-10-01 18:39:00,66.4,58.6,29.85,WNW,302,0.0,0.0,76,0.00,,,0.00,Wunderground v.1.15,2013-10-01 22:39:00,
2013-10-01 18:44:00,65.8,58.7,29.85,WNW,302,0.0,1.0,78,0.00,,,0.00,Wunderground v.1.15,2013-10-01 22:44:00,
2013-10-01 18:51:00,65.1,58.4,29.85,WNW,302,0.0,0.0,79,0.00,,,0.00,Wunderground v.1.15,2013-10-01 22:51:00,
2013-10-01 18:56:00,64.6,58.3,29.85,WNW,302,0.0,1.0,80,0.00,,,0.00,Wunderground v.1.15,2013-10-01 22:56:00,
2013-10-01 19:01:00,64.1,58.1,29.85,WNW,302,0.0,1.0,81,0.00,,,0.00,Wunderground v.1.15,2013-10-01 23:01:00,
2013-10-01 19:06:00,63.6,58.0,29.85,WNW,302,1.0,2.0,82,0.00,,,0.00,Wunderground v.1.15,2013-10-01 23:06:00,
2013-10-01 19:12:00,63.0,57.4,29.86,WNW,302,1.0,1.0,82,0.00,,,0.00,Wunderground v.1.15,2013-10-01 23:12:00,
2013-10-01 19:17:00,62.5,57.3,29.86,WNW,302,0.0,1.0,83,0.00,,,0.00,Wunderground v.1.15,2013-10-01 23:17:00,
2013-10-01 19:21:00,62.2,57.3,29.86,WNW,302,0.0,0.0,84,0.00,,,0.00,Wunderground v.1.15,2013-10-01 23:21:00,
2013-10-01 19:27:00,61.8,56.9,29.86,WNW,302,0.0,0.0,84,0.00,,,0.00,Wunderground v.1.15,2013-10-01 23:27:00,
2013-10-01 19:31:00,61.5,56.9,29.86,WNW,302,0.0,0.0,85,0.00,,,0.00,Wunderground v.1.15,2013-10-01 23:31:00,
2013-10-01 19:37:00,61.2,56.7,29.86,WNW,302,0.0,1.0,85,0.00,,,0.00,Wunderground v.1.15,2013-10-01 23:37:00,
2013-10-01 19:43:00,60.7,56.5,29.87,WNW,302,0.0,2.0,86,0.00,,,0.00,Wunderground v.1.15,2013-10-01 23:43:00,
2013-10-01 19:49:00,60.3,56.1,29.87,WNW,302,1.0,2.0,86,0.00,,,0.00,Wunderground v.1.15,2013-10-01 23:49:00,
2013-10-01 19:56:00,60.0,56.1,29.87,WNW,302,0.0,1.0,87,0.00,,,0.00,Wunderground v.1.15,2013-10-01 23:56:00,
2013-10-01 20:01:00,59.8,55.9,29.87,WNW,302,0.0,0.0,87,0.00,,,0.00,Wunderground v.1.15,2013-10-02 00:01:00,
2013-10-01 20:06:00,59.6,55.7,29.87,WNW,302,0.0,0.0,87,0.00,,,0.00,Wunderground v.1.15,2013-10-02 00:06:00,
2013-10-01 20:12:00,59.3,55.4,29.87,WNW,302,0.0,0.0,87,0.00,,,0.00,Wunderground v.1.15,2013-10-02 00:12:00,
2013-10-01 20:18:00,59.0,55.1,29.87,WNW,302,0.0,0.0,87,0.00,,,0.00,Wunderground v.1.15,2013-10-02 00:18:00,
2013-10-01 20:24:00,59.0,55.4,29.87,WNW,302,0.0,1.0,88,0.00,,,0.00,Wunderground v.1.15,2013-10-02 00:24:00,
2013-10-01 20:31:00,58.6,55.1,29.87,WNW,302,0.0,0.0,88,0.00,,,0.00,Wunderground v.1.15,2013-10-02 00:31:00,
2013-10-01 20:36:00,58.4,54.9,29.87,WNW,302,0.0,0.0,88,0.00,,,0.00,Wunderground v.1.15,2013-10-02 00:36:00,
2013-10-01 20:38:00,58.4,54.9,29.87,WNW,302,0.0,0.0,88,0.00,,,0.00,Wunderground v.1.15,2013-10-02 00:38:00,
2013-10-01 20:44:00,58.2,54.7,29.87,WNW,302,0.0,0.0,88,0.00,,,0.00,Wunderground v.1.15,2013-10-02 00:44:00,
2013-10-01 20:51:00,58.0,54.5,29.87,WNW,302,0.0,0.0,88,0.00,,,0.00,Wunderground v.1.15,2013-10-02 00:51:00,
2013-10-01 20:56:00,57.8,54.3,29.87,WNW,302,0.0,1.0,88,0.00,,,0.00,Wunderground v.1.15,2013-10-02 00:56:00,
2013-10-01 21:02:00,57.6,54.1,29.87,WNW,302,0.0,1.0,88,0.00,,,0.00,Wunderground v.1.15,2013-10-02 01:02:00,
2013-10-01 21:08:00,57.5,54.0,29.87,WNW,302,1.0,1.0,88,0.00,,,0.00,Wunderground v.1.15,2013-10-02 01:08:00,
2013-10-01 21:14:00,57.4,53.9,29.87,WNW,302,1.0,2.0,88,0.00,,,0.00,Wunderground v.1.15,2013-10-02 01:14:00,
2013-10-01 21:21:00,57.2,53.7,29.87,WNW,302,1.0,1.0,88,0.00,,,0.00,Wunderground v.1.15,2013-10-02 01:21:00,
2013-10-01 21:26:00,57.1,53.6,29.87,WNW,302,0.0,1.0,88,0.00,,,0.00,Wunderground v.1.15,2013-10-02 01:26:00,
2013-10-01 21:32:00,56.9,53.4,29.87,WNW,302,0.0,1.0,88,0.00,,,0.00,Wunderground v.1.15,2013-10-02 01:32:00,
2013-10-01 21:38:00,56.8,53.3,29.87,WNW,302,1.0,1.0,88,0.00,,,0.00,Wunderground v.1.15,2013-10-02 01:38:00,
2013-10-01 21:44:00,56.7,53.2,29.87,WNW,302,1.0,2.0,88,0.00,,,0.00,Wunderground v.1.15,2013-10-02 01:44:00,
2013-10-01 21:49:00,56.6,53.1,29.87,WNW,302,1.0,2.0,88,0.00,,,0.00,Wunderground v.1.15,2013-10-02 01:49:00,
2013-10-01 21:56:00,56.5,53.0,29.88,WNW,302,1.0,2.0,88,0.00,,,0.00,Wunderground v.1.15,2013-10-02 01:56:00,
2013-10-01 22:01:00,56.3,52.8,29.88,WNW,302,1.0,1.0,88,0.00,,,0.00,Wunderground v.1.15,2013-10-02 02:01:00,
2013-10-01 22:07:00,56.3,52.8,29.88,WNW,302,1.0,1.0,88,0.00,,,0.00,Wunderground v.1.15,2013-10-02 02:07:00,
2013-10-01 22:13:00,56.1,52.6,29.87,WNW,302,1.0,1.0,88,0.00,,,0.00,Wunderground v.1.15,2013-10-02 02:13:00,
2013-10-01 22:19:00,56.0,52.5,29.88,WNW,302,0.0,1.0,88,0.00,,,0.00,Wunderground v.1.15,2013-10-02 02:19:00,
2013-10-01 22:26:00,55.9,52.4,29.88,WNW,302,0.0,1.0,88,0.00,,,0.00,Wunderground v.1.15,2013-10-02 02:26:00,
2013-10-01 22:31:00,55.8,52.3,29.88,WNW,302,1.0,1.0,88,0.00,,,0.00,Wunderground v.1.15,2013-10-02 02:31:00,
2013-10-01 22:37:00,55.7,52.2,29.87,WNW,302,1.0,1.0,88,0.00,,,0.00,Wunderground v.1.15,2013-10-02 02:37:00,
2013-10-01 22:43:00,55.6,52.1,29.87,WNW,302,1.0,1.0,88,0.00,,,0.00,Wunderground v.1.15,2013-10-02 02:43:00,
2013-10-01 22:49:00,55.4,51.9,29.87,WNW,302,1.0,1.0,88,0.00,,,0.00,Wunderground v.1.15,2013-10-02 02:49:00,
2013-10-01 22:56:00,55.4,51.9,29.87,WNW,302,1.0,1.0,88,0.00,,,0.00,Wunderground v.1.15,2013-10-02 02:56:00,
2013-10-01 23:02:00,55.3,51.8,29.87,WNW,302,1.0,1.0,88,0.00,,,0.00,Wunderground v.1.15,2013-10-02 03:02:00,
2013-10-01 23:08:00,55.2,51.7,29.87,WNW,302,1.0,1.0,88,0.00,,,0.00,Wunderground v.1.15,2013-10-02 03:08:00,
2013-10-01 23:13:00,55.1,51.6,29.87,WNW,302,1.0,2.0,88,0.00,,,0.00,Wunderground v.1.15,2013-10-02 03:13:00,
2013-10-01 23:19:00,55.0,51.5,29.87,WNW,302,1.0,2.0,88,0.00,,,0.00,Wunderground v.1.15,2013-10-02 03:19:00,
2013-10-01 23:24:00,54.8,51.3,29.87,WNW,302,1.0,1.0,88,0.00,,,0.00,Wunderground v.1.15,2013-10-02 03:24:00,
2013-10-01 23:31:00,54.8,51.3,29.87,WNW,302,1.0,1.0,88,0.00,,,0.00,Wunderground v.1.15,2013-10-02 03:31:00,
2013-10-01 23:37:00,54.7,51.2,29.87,WNW,302,0.0,1.0,88,0.00,,,0.00,Wunderground v.1.15,2013-10-02 03:37:00,
2013-10-01 23:43:00,54.6,51.1,29.87,WNW,302,1.0,2.0,88,0.00,,,0.00,Wunderground v.1.15,2013-10-02 03:43:00,
2013-10-01 23:48:00,54.6,51.1,29.87,WNW,302,1.0,2.0,88,0.00,,,0.00,Wunderground v.1.15,2013-10-02 03:48:00,
2013-10-01 23:54:00,54.6,51.1,29.87,WNW,302,1.0,2.0,88,0.00,,,0.00,Wunderground v.1.15,2013-10-02 03:54:00,